Time;durP1;ratioP1;P1;durP2;ratioP2;P2;SDS_P1;SDS_P2;PMS_P1;PMS_P2;Temp;Humidity;BMP_temperature;BMP_pressure;BME280_temperature;BME280_humidity;BME280_pressure;Samples;Min_cycle;Max_cycle;Signal;HPM_P1;HPM_P2
2020/12/11 00:01:43;;;;;;;120.43;40.60;;;;;;;-0.01;88.63;99944.03;130249;1090;23253;-63
2020/12/11 00:04:12;;;;;;;250.77;67.90;;;;;;;-0.02;87.68;99943.20;130121;1093;23974;-63
2020/12/11 00:06:40;;;;;;;209.20;50.17;;;;;;;0.00;88.49;99933.11;130260;1090;23179;-63
2020/12/11 00:09:07;;;;;;;141.77;35.87;;;;;;;0.03;88.26;99942.64;130076;1090;23177;-63
2020/12/11 00:11:34;;;;;;;189.17;46.20;;;;;;;0.03;87.26;99931.09;130244;1093;23220;-63
2020/12/11 00:14:02;;;;;;;173.97;55.67;;;;;;;0.03;87.71;99933.77;130105;1097;23832;-63
2020/12/11 00:16:31;;;;;;;307.67;73.10;;;;;;;0.02;88.05;99924.06;130235;1090;23262;-63
2020/12/11 00:18:58;;;;;;;211.35;55.05;;;;;;;0.00;88.54;99926.95;130125;1090;23183;-63
2020/12/11 00:21:25;;;;;;;166.77;43.80;;;;;;;0.00;88.07;99927.76;130258;1090;23194;-63
2020/12/11 00:23:53;;;;;;;79.13;29.33;;;;;;;0.02;87.78;99921.39;130139;1090;23229;-63
2020/12/11 00:26:20;;;;;;;233.00;61.90;;;;;;;0.03;88.56;99926.57;130221;1097;23230;-63
2020/12/11 00:28:48;;;;;;;89.67;29.17;;;;;;;0.04;87.44;99920.20;130247;1090;23171;-63
2020/12/11 00:31:22;;;;;;;93.63;32.53;;;;;;;0.04;87.42;99914.02;130108;1097;23202;-63
2020/12/11 00:33:53;;;;;;;87.93;32.00;;;;;;;0.04;87.82;99922.05;130258;1090;23210;-63
2020/12/11 00:36:21;;;;;;;69.30;28.53;;;;;;;0.02;88.00;99919.55;127950;1090;23397;-62
2020/12/11 00:38:49;;;;;;;93.67;33.23;;;;;;;0.04;87.18;99930.08;130222;1090;23234;-63
2020/12/11 00:41:16;;;;;;;56.77;25.03;;;;;;;0.04;87.51;99922.05;130090;1090;23245;-63
2020/12/11 00:43:43;;;;;;;56.20;23.27;;;;;;;0.04;87.20;99917.52;130267;1097;23168;-63
2020/12/11 00:46:12;;;;;;;72.40;28.07;;;;;;;0.04;87.08;99917.52;130108;1090;23268;-63
2020/12/11 00:48:43;;;;;;;62.60;23.20;;;;;;;0.04;86.90;99914.84;130281;1090;23262;-63
2020/12/11 00:51:11;;;;;;;57.87;23.37;;;;;;;0.05;87.30;99926.39;130146;1097;23267;-63
2020/12/11 00:53:40;;;;;;;39.80;21.13;;;;;;;0.06;88.00;99926.22;130235;1093;23160;-63
2020/12/11 00:56:09;;;;;;;57.63;23.33;;;;;;;0.08;86.92;99924.20;130085;1093;23187;-63
2020/12/11 00:58:36;;;;;;;72.97;28.10;;;;;;;0.10;87.00;99930.20;130438;1096;23196;-63
2020/12/11 01:01:04;;;;;;;67.93;26.00;;;;;;;0.12;87.21;99922.83;130292;1090;23169;-63
2020/12/11 01:03:31;;;;;;;55.37;21.33;;;;;;;0.13;86.80;99915.63;130488;1090;23277;-63
2020/12/11 01:05:58;;;;;;;61.07;27.07;;;;;;;0.13;87.56;99913.78;130331;1090;23229;-63
2020/12/11 01:08:26;;;;;;;101.93;33.80;;;;;;;0.10;87.58;99915.98;130411;1090;23262;-63
2020/12/11 01:10:53;;;;;;;112.13;37.67;;;;;;;0.12;87.61;99909.43;130139;1097;24098;-63
2020/12/11 01:13:21;;;;;;;86.23;34.27;;;;;;;0.14;87.54;99914.61;130430;1089;23245;-64
2020/12/11 01:15:49;;;;;;;78.97;32.80;;;;;;;0.13;86.50;99918.30;130461;1097;24158;-64
2020/12/11 01:18:16;;;;;;;92.77;34.13;;;;;;;0.13;87.12;99919.14;130223;1090;24208;-63
2020/12/11 01:20:44;;;;;;;77.83;27.17;;;;;;;0.13;87.49;99915.63;130446;1090;23248;-64
2020/12/11 01:23:11;;;;;;;71.73;27.63;;;;;;;0.14;86.98;99911.94;130380;1089;23132;-64
2020/12/11 01:25:39;;;;;;;51.37;20.77;;;;;;;0.14;87.33;99902.05;130472;1090;23218;-63
2020/12/11 01:28:06;;;;;;;93.90;32.97;;;;;;;0.14;87.33;99904.73;130317;1095;23175;-64
2020/12/11 01:30:33;;;;;;;82.25;29.40;;;;;;;0.15;86.41;99911.72;130265;1090;23171;-64
2020/12/11 01:33:01;;;;;;;55.57;23.43;;;;;;;0.15;87.23;99906.37;130302;1089;23731;-64
2020/12/11 01:35:28;;;;;;;41.43;20.63;;;;;;;0.14;86.17;99891.33;130483;1095;23160;-64
2020/12/11 01:38:02;;;;;;;72.13;28.83;;;;;;;0.14;86.33;99904.73;130348;1090;23204;-64
2020/12/11 01:40:36;;;;;;;40.65;17.90;;;;;;;0.14;87.33;99891.33;130480;1090;24199;-64
2020/12/11 01:43:04;;;;;;;50.17;23.27;;;;;;;0.15;86.38;99901.01;130103;1097;23232;-64
2020/12/11 01:45:32;;;;;;;35.00;16.53;;;;;;;0.13;86.76;99894.19;130469;1089;23170;-64
2020/12/11 01:48:02;;;;;;;47.73;21.50;;;;;;;0.14;87.27;99893.18;130316;1089;23182;-65
2020/12/11 01:50:29;;;;;;;33.45;17.00;;;;;;;0.09;86.36;99883.00;130294;1090;23175;-64
2020/12/11 01:52:57;;;;;;;51.55;22.90;;;;;;;0.11;87.36;99893.53;130296;1090;23276;-64
2020/12/11 01:55:27;;;;;;;37.07;18.10;;;;;;;0.11;87.07;99883.66;130470;1090;23154;-64
2020/12/11 01:58:02;;;;;;;33.95;15.20;;;;;;;0.12;86.98;99885.32;130299;1090;23958;-64
2020/12/11 02:00:30;;;;;;;38.25;16.20;;;;;;;0.13;86.85;99876.27;130304;1089;23152;-64
2020/12/11 02:03:06;;;;;;;49.90;21.95;;;;;;;0.16;86.96;99883.09;130130;1090;23333;-64
2020/12/11 02:05:33;;;;;;;31.70;16.63;;;;;;;0.15;86.96;99881.42;130434;1089;23160;-64
2020/12/11 02:08:01;;;;;;;37.43;17.00;;;;;;;0.13;86.02;99873.59;130319;1090;23220;-64
2020/12/11 02:10:29;;;;;;;37.20;16.27;;;;;;;0.11;86.30;99880.98;130461;1090;23813;-64
2020/12/11 02:13:05;;;;;;;47.60;19.60;;;;;;;0.13;86.92;99880.80;130278;1090;24278;-64
2020/12/11 02:15:34;;;;;;;40.33;17.73;;;;;;;0.12;86.75;99877.28;130168;1096;23190;-64
2020/12/11 02:18:02;;;;;;;39.07;19.90;;;;;;;0.14;87.05;99883.30;130245;1090;23170;-64
2020/12/11 02:20:30;;;;;;;36.40;16.70;;;;;;;0.14;85.73;99885.14;130352;1090;23246;-65
2020/12/11 02:23:06;;;;;;;34.40;16.25;;;;;;;0.12;86.03;99877.28;130526;1095;23183;-64
2020/12/11 02:25:34;;;;;;;42.13;18.17;;;;;;;0.13;85.88;99878.12;130303;1090;23823;-64
2020/12/11 02:28:06;;;;;;;25.83;14.67;;;;;;;0.11;86.58;99880.98;130270;1095;23151;-64
2020/12/11 02:30:33;;;;;;;31.67;15.43;;;;;;;0.12;85.54;99888.00;130279;1090;23173;-64
2020/12/11 02:33:03;;;;;;;27.90;13.55;;;;;;;0.10;86.50;99878.47;130481;1090;23238;-64
2020/12/11 02:35:31;;;;;;;33.77;16.33;;;;;;;0.12;86.69;99881.81;129711;1095;23370;-64
2020/12/11 02:38:00;;;;;;;23.40;13.43;;;;;;;0.11;86.33;99886.33;130267;1090;23872;-65
2020/12/11 02:40:28;;;;;;;39.70;20.27;;;;;;;0.08;85.78;99897.41;130372;1090;23233;-64
2020/12/11 02:42:55;;;;;;;32.73;15.43;;;;;;;0.09;86.32;99896.39;130423;1090;23162;-65
2020/12/11 02:45:22;;;;;;;28.77;15.80;;;;;;;0.09;86.63;99896.39;130315;1090;23219;-64
2020/12/11 02:47:52;;;;;;;23.37;12.57;;;;;;;0.12;85.43;99901.39;130479;1095;23330;-64
2020/12/11 02:50:21;;;;;;;28.30;13.20;;;;;;;0.14;86.57;99890.50;130302;1090;23238;-65
2020/12/11 02:52:49;;;;;;;25.27;13.43;;;;;;;0.13;85.92;99899.55;130458;1090;23219;-65
2020/12/11 02:55:19;;;;;;;21.63;13.00;;;;;;;0.12;85.23;99911.28;130342;1090;23172;-65
2020/12/11 02:57:46;;;;;;;26.90;14.77;;;;;;;0.11;85.93;99901.58;130436;1090;23185;-64
2020/12/11 03:00:13;;;;;;;29.50;14.83;;;;;;;0.11;85.36;99905.09;130305;1090;24838;-65
2020/12/11 03:02:41;;;;;;;29.27;14.53;;;;;;;0.13;85.16;99895.03;130418;1095;23163;-65
2020/12/11 03:05:09;;;;;;;24.65;12.65;;;;;;;0.11;85.13;99891.69;130344;1089;23229;-65
2020/12/11 03:07:39;;;;;;;26.70;13.53;;;;;;;0.11;86.49;99896.22;130431;1095;23204;-65
2020/12/11 03:10:07;;;;;;;22.70;12.67;;;;;;;0.08;86.48;99894.73;130219;1090;23164;-65
2020/12/11 03:12:36;;;;;;;31.20;14.15;;;;;;;0.05;86.00;99892.41;130181;1090;23136;-65
2020/12/11 03:15:04;;;;;;;26.50;12.80;;;;;;;0.05;85.20;99899.61;130438;1090;23374;-65
2020/12/11 03:17:37;;;;;;;24.33;12.40;;;;;;;0.03;85.90;99889.06;126054;1090;23315;-64
2020/12/11 03:20:05;;;;;;;19.63;11.50;;;;;;;0.03;86.01;99888.23;130398;1095;23311;-65
2020/12/11 03:22:37;;;;;;;21.70;12.13;;;;;;;0.00;85.72;99884.09;130142;1090;23273;-65
2020/12/11 03:25:04;;;;;;;28.60;13.07;;;;;;;-0.04;84.90;99882.78;130416;1090;23277;-65
2020/12/11 03:27:32;;;;;;;23.27;12.47;;;;;;;-0.06;85.53;99890.16;130310;1095;23149;-65
2020/12/11 03:29:59;;;;;;;23.37;12.80;;;;;;;-0.08;85.47;99884.98;130416;1089;23173;-65
2020/12/11 03:32:26;;;;;;;27.60;11.60;;;;;;;-0.07;85.45;99883.14;130313;1090;23276;-65
2020/12/11 03:34:54;;;;;;;23.73;11.87;;;;;;;-0.10;85.97;99886.17;130459;1090;23233;-65
2020/12/11 03:37:22;;;;;;;20.20;12.10;;;;;;;-0.10;85.82;99897.72;130230;1089;23165;-64
2020/12/11 03:39:50;;;;;;;23.67;12.27;;;;;;;-0.12;86.30;99893.55;130439;1095;23242;-65
2020/12/11 03:42:17;;;;;;;26.80;12.43;;;;;;;-0.14;84.95;99890.22;130307;1090;23241;-65
2020/12/11 03:44:48;;;;;;;23.93;12.30;;;;;;;-0.13;86.06;99889.20;130412;1090;23251;-65
2020/12/11 03:47:16;;;;;;;20.67;11.60;;;;;;;-0.14;85.02;99896.41;130337;1090;23186;-65
2020/12/11 03:49:43;;;;;;;22.25;10.90;;;;;;;-0.24;85.77;99876.25;130414;1089;24122;-64
2020/12/11 03:52:16;;;;;;;22.70;11.87;;;;;;;-0.16;85.89;99894.95;130325;1095;24069;-65
2020/12/11 03:54:43;;;;;;;21.23;11.03;;;;;;;-0.17;86.17;99895.95;130233;1090;24208;-65
2020/12/11 03:57:13;;;;;;;26.43;12.17;;;;;;;-0.17;85.26;99901.31;130279;1090;23339;-65
2020/12/11 03:59:40;;;;;;;23.27;10.93;;;;;;;-0.17;85.08;99906.66;130451;1095;23239;-65
2020/12/11 04:02:08;;;;;;;22.50;12.10;;;;;;;-0.19;85.85;99904.16;130454;1090;23284;-65
2020/12/11 04:04:35;;;;;;;24.00;11.27;;;;;;;-0.20;85.41;99909.70;130310;1095;24214;-65
2020/12/11 04:07:02;;;;;;;22.60;12.40;;;;;;;-0.20;85.00;99899.82;130412;1090;23166;-65
2020/12/11 04:09:30;;;;;;;24.30;13.80;;;;;;;-0.24;85.08;99903.02;130296;1089;23212;-65
2020/12/11 04:11:58;;;;;;;23.17;11.33;;;;;;;-0.26;85.87;99897.02;130456;1095;23229;-65
2020/12/11 04:14:25;;;;;;;21.27;11.27;;;;;;;-0.27;85.71;99892.67;130315;1090;23791;-65
2020/12/11 04:16:53;;;;;;;23.33;12.00;;;;;;;-0.28;85.32;99896.35;130465;1090;23148;-65
2020/12/11 04:19:22;;;;;;;23.20;11.00;;;;;;;-0.29;85.51;99906.27;130247;1090;23201;-65
2020/12/11 04:21:56;;;;;;;21.07;10.50;;;;;;;-0.29;85.13;99895.55;130419;1090;23160;-65
2020/12/11 04:24:23;;;;;;;23.83;11.30;;;;;;;-0.33;85.48;99910.30;130294;1089;23162;-65
2020/12/11 04:26:51;;;;;;;21.87;11.60;;;;;;;-0.34;85.10;99902.44;130476;1095;23820;-65
2020/12/11 04:29:18;;;;;;;25.30;11.63;;;;;;;-0.37;85.05;99899.11;130321;1089;23225;-65
2020/12/11 04:31:55;;;;;;;25.80;11.17;;;;;;;-0.37;84.97;99900.95;130443;1095;23212;-65
2020/12/11 04:34:23;;;;;;;21.15;11.22;;;;;;;-0.40;85.12;99902.13;130289;1090;23911;-65
2020/12/11 04:36:55;;;;;;;24.73;11.93;;;;;;;-0.41;85.48;99902.30;130448;1096;24112;-65
2020/12/11 04:39:23;;;;;;;26.60;11.63;;;;;;;-0.44;84.50;99897.33;130321;1089;23255;-65
2020/12/11 04:41:51;;;;;;;23.73;10.77;;;;;;;-0.45;85.39;99909.05;130459;1090;23165;-65
2020/12/11 04:44:20;;;;;;;18.60;10.40;;;;;;;-0.45;84.70;99906.38;130324;1096;23233;-65
2020/12/11 04:46:47;;;;;;;19.97;10.30;;;;;;;-0.47;85.06;99905.71;130428;1090;23164;-65
2020/12/11 04:49:15;;;;;;;21.13;10.17;;;;;;;-0.49;84.12;99911.23;130244;1090;24019;-65
2020/12/11 04:51:49;;;;;;;25.70;12.27;;;;;;;-0.52;84.49;99922.29;130492;1096;23186;-65
2020/12/11 04:54:20;;;;;;;21.90;11.00;;;;;;;-0.52;84.07;99918.78;130226;1092;23197;-65
2020/12/11 04:56:50;;;;;;;27.60;11.60;;;;;;;-0.55;84.59;99925.31;130451;1095;23252;-65
2020/12/11 04:59:18;;;;;;;21.37;10.83;;;;;;;-0.54;84.44;99935.02;130422;1090;24201;-65
2020/12/11 05:01:46;;;;;;;20.60;11.07;;;;;;;-0.53;84.32;99936.68;130326;1089;24169;-65
2020/12/11 05:04:13;;;;;;;24.80;10.43;;;;;;;-0.50;84.66;99935.50;130455;1095;23159;-65
2020/12/11 05:06:43;;;;;;;22.93;10.33;;;;;;;-0.48;84.77;99941.52;130304;1090;23160;-65
2020/12/11 05:09:14;;;;;;;22.30;11.23;;;;;;;-0.49;84.29;99942.52;130460;1090;23177;-65
2020/12/11 05:11:45;;;;;;;21.63;10.73;;;;;;;-0.50;84.28;99949.72;130325;1090;23187;-65
2020/12/11 05:14:23;;;;;;;25.47;11.93;;;;;;;-0.50;83.80;99944.36;130411;1089;23250;-65
2020/12/11 05:17:06;;;;;;;23.90;11.83;;;;;;;-0.50;84.69;99946.20;130285;1090;23857;-65
2020/12/11 05:19:51;;;;;;;20.27;10.27;;;;;;;-0.55;84.48;99936.02;130199;1090;23908;-65
2020/12/11 05:22:20;;;;;;;21.73;11.53;;;;;;;-0.59;84.19;99944.59;130251;1090;23153;-65
2020/12/11 05:24:50;;;;;;;20.97;11.20;;;;;;;-0.64;83.95;99950.47;130473;1090;23299;-65
2020/12/11 05:27:31;;;;;;;25.53;11.70;;;;;;;-0.67;83.68;99945.45;130309;1090;23161;-65
2020/12/11 05:30:19;;;;;;;22.03;11.03;;;;;;;-0.71;83.27;99949.48;130439;1090;23223;-65
2020/12/11 05:32:50;;;;;;;22.77;10.40;;;;;;;-0.75;83.63;99957.05;130375;1095;23223;-65
2020/12/11 05:35:19;;;;;;;23.57;11.17;;;;;;;-0.79;83.45;99952.21;130387;1090;23164;-65
2020/12/11 05:38:06;;;;;;;21.13;10.73;;;;;;;-0.81;83.24;99943.52;130329;1089;24129;-65
2020/12/11 05:40:35;;;;;;;22.43;11.03;;;;;;;-0.83;83.39;99950.88;130482;1090;23331;-65
2020/12/11 05:43:04;;;;;;;24.17;10.80;;;;;;;-0.85;83.92;99950.22;130257;1090;23241;-65
2020/12/11 05:45:34;;;;;;;22.67;12.67;;;;;;;-0.86;83.43;99956.58;130410;1090;23249;-65
2020/12/11 05:48:05;;;;;;;23.97;12.47;;;;;;;-0.91;83.95;99948.26;130299;1095;23299;-65
2020/12/11 05:50:33;;;;;;;35.00;17.30;;;;;;;-0.95;83.92;99957.63;130452;1090;23246;-65
2020/12/11 05:53:00;;;;;;;35.37;17.57;;;;;;;-0.99;83.73;99953.63;130154;1090;23797;-65
2020/12/11 05:55:28;;;;;;;29.73;14.47;;;;;;;-1.02;84.04;99960.17;130459;1090;23238;-65
2020/12/11 05:57:56;;;;;;;29.80;13.73;;;;;;;-1.05;83.36;99963.19;130307;1090;23258;-65
2020/12/11 06:00:25;;;;;;;28.33;14.00;;;;;;;-1.10;83.50;99957.52;130466;1095;24223;-65
2020/12/11 06:02:53;;;;;;;36.00;15.50;;;;;;;-1.14;83.66;99957.02;130098;1090;23221;-65
2020/12/11 06:05:24;;;;;;;35.27;14.83;;;;;;;-1.20;82.64;99956.89;130435;1090;23175;-64
2020/12/11 06:07:52;;;;;;;30.60;14.90;;;;;;;-1.23;82.85;99963.41;130339;1090;23475;-64
2020/12/11 06:10:22;;;;;;;29.80;13.37;;;;;;;-1.28;83.20;99947.03;130419;1090;23713;-64
2020/12/11 06:12:50;;;;;;;33.03;15.17;;;;;;;-1.30;82.96;99961.60;130307;1095;23274;-64
2020/12/11 06:15:17;;;;;;;24.50;13.37;;;;;;;-1.33;83.54;99959.27;130399;1089;23630;-64
2020/12/11 06:18:08;;;;;;;27.93;12.00;;;;;;;-1.36;83.66;99962.27;130307;1089;24213;-64
2020/12/11 06:20:38;;;;;;;22.93;11.90;;;;;;;-1.40;83.32;99968.95;130431;1095;23258;-64
2020/12/11 06:23:25;;;;;;;30.53;13.77;;;;;;;-1.44;83.22;99957.77;130139;1090;24756;-64
2020/12/11 06:25:59;;;;;;;20.97;9.10;;;;;;;-1.49;84.04;99960.97;130442;1090;23228;-64
2020/12/11 06:28:48;;;;;;;26.87;12.13;;;;;;;-1.52;83.21;99955.13;130264;1095;23263;-64
2020/12/11 06:31:20;;;;;;;35.53;15.03;;;;;;;-1.56;83.12;99965.30;130391;1090;23229;-63
2020/12/11 06:33:57;;;;;;;22.30;11.75;;;;;;;-1.59;82.99;99968.34;130327;1090;23160;-63
2020/12/11 06:36:24;;;;;;;25.70;10.80;;;;;;;-1.64;82.80;99962.66;130457;1096;23168;-63
2020/12/11 06:38:56;;;;;;;28.87;11.90;;;;;;;-1.69;83.50;99964.16;130312;1089;23204;-63
2020/12/11 06:41:28;;;;;;;22.17;11.33;;;;;;;-1.71;82.96;99963.48;130233;1097;23993;-63
2020/12/11 06:44:09;;;;;;;48.30;17.40;;;;;;;-1.70;83.58;99962.48;130382;1089;23169;-64
2020/12/11 06:46:36;;;;;;;31.67;14.03;;;;;;;-1.70;83.55;99960.65;130425;1090;23856;-67
2020/12/11 06:49:17;;;;;;;23.20;11.63;;;;;;;-1.69;83.50;99961.48;130118;1090;28955;-63
2020/12/11 06:51:44;;;;;;;18.67;10.87;;;;;;;-1.72;83.02;99959.97;130439;1090;23177;-62
2020/12/11 06:54:21;;;;;;;20.73;11.90;;;;;;;-1.77;83.43;99967.68;130303;1090;23374;-62
2020/12/11 06:57:06;;;;;;;20.77;11.03;;;;;;;-1.81;82.99;99956.48;130473;1096;24172;-62
2020/12/11 06:59:40;;;;;;;22.43;11.83;;;;;;;-1.82;83.16;99964.67;130322;1089;23182;-63
2020/12/11 07:02:15;;;;;;;20.07;11.23;;;;;;;-1.84;82.82;99947.97;130475;1090;27682;-63
2020/12/11 07:04:44;;;;;;;22.23;11.43;;;;;;;-1.86;83.25;99950.80;130306;1090;23250;-62
2020/12/11 07:07:13;;;;;;;28.50;13.83;;;;;;;-1.87;83.51;99959.81;130451;1089;23157;-63
2020/12/11 07:09:51;;;;;;;20.70;11.13;;;;;;;-1.86;83.12;99947.30;130080;1090;23200;-62
2020/12/11 07:12:19;;;;;;;27.13;12.90;;;;;;;-1.85;83.22;99957.81;130435;1090;23192;-62
2020/12/11 07:14:55;;;;;;;21.03;10.93;;;;;;;-1.89;82.93;99931.64;130245;1089;23165;-63
2020/12/11 07:17:29;;;;;;;22.27;10.60;;;;;;;-1.94;82.94;99944.64;130495;1095;23218;-63
2020/12/11 07:19:56;;;;;;;24.13;11.87;;;;;;;-1.99;82.88;99949.64;130375;1090;23239;-63
2020/12/11 07:22:24;;;;;;;21.83;10.37;;;;;;;-2.04;82.60;99944.83;130214;1090;23209;-62
2020/12/11 07:24:51;;;;;;;22.93;11.10;;;;;;;-2.08;82.43;99945.31;130459;1095;23169;-62
2020/12/11 07:27:28;;;;;;;21.93;10.70;;;;;;;-2.11;82.67;99950.98;130313;1090;23362;-62
2020/12/11 07:29:55;;;;;;;29.50;11.37;;;;;;;-2.12;83.00;99943.97;130445;1090;23195;-62
2020/12/11 07:32:23;;;;;;;22.37;10.67;;;;;;;-2.13;82.93;99945.80;130318;1090;23218;-61
2020/12/11 07:34:53;;;;;;;26.33;11.27;;;;;;;-2.17;82.84;99939.16;130474;1090;24600;-62
2020/12/11 07:37:20;;;;;;;19.50;9.70;;;;;;;-2.20;82.95;99950.98;130145;1097;23166;-63
2020/12/11 07:39:48;;;;;;;22.30;11.57;;;;;;;-2.23;82.81;99937.13;130449;1090;23174;-61
2020/12/11 07:42:21;;;;;;;27.57;11.80;;;;;;;-2.27;82.69;99946.46;130138;1090;23235;-62
2020/12/11 07:44:48;;;;;;;23.57;11.37;;;;;;;-2.30;82.52;99946.78;130445;1096;23181;-63
2020/12/11 07:47:17;;;;;;;27.60;11.50;;;;;;;-2.33;82.75;99960.48;130325;1090;23170;-62
2020/12/11 07:49:48;;;;;;;20.90;10.80;;;;;;;-2.35;82.72;99954.47;130423;1095;23199;-62
2020/12/11 07:52:22;;;;;;;33.87;12.10;;;;;;;-2.37;82.79;99953.80;130251;1090;23894;-62
2020/12/11 07:54:54;;;;;;;23.43;11.80;;;;;;;-2.41;82.61;99944.44;130473;1090;24143;-62
2020/12/11 07:57:24;;;;;;;22.87;9.87;;;;;;;-2.44;82.39;99944.77;130363;1090;23301;-62
2020/12/11 08:00:07;;;;;;;21.10;11.63;;;;;;;-2.47;82.68;99950.45;130240;1090;23167;-62
2020/12/11 08:02:34;;;;;;;24.37;11.10;;;;;;;-2.51;82.49;99947.27;130262;1090;23140;-62
2020/12/11 08:05:06;;;;;;;23.60;11.37;;;;;;;-2.52;82.32;99946.44;130275;1090;23253;-63
2020/12/11 08:07:34;;;;;;;23.27;11.27;;;;;;;-2.52;82.70;99942.93;130307;1090;23211;-62
2020/12/11 08:10:15;;;;;;;27.37;12.80;;;;;;;-2.52;82.76;99948.27;130438;1089;23172;-62
2020/12/11 08:15:59;;;;;;;23.23;11.03;;;;;;;-2.50;82.98;99939.11;125609;1093;23598;-61
2020/12/11 08:18:33;;;;;;;29.30;11.87;;;;;;;-2.50;82.88;99936.44;125312;1093;23453;-61
2020/12/11 08:21:01;;;;;;;25.80;11.40;;;;;;;-2.51;82.75;99947.27;129919;1102;23220;-62
2020/12/11 08:23:35;;;;;;;25.87;12.93;;;;;;;-2.54;83.02;99937.75;129859;1093;24127;-62
2020/12/11 08:26:11;;;;;;;22.15;11.80;;;;;;;-2.58;82.61;99944.41;129991;1100;23165;-62
2020/12/11 08:28:39;;;;;;;25.10;12.70;;;;;;;-2.60;82.60;99941.09;129839;1093;23197;-62
2020/12/11 08:31:25;;;;;;;27.00;13.47;;;;;;;-2.61;82.47;99935.92;129931;1095;24447;-63
2020/12/11 08:34:04;;;;;;;25.53;11.37;;;;;;;-2.61;82.88;99931.42;129835;1101;23255;-63
2020/12/11 08:36:32;;;;;;;20.03;10.90;;;;;;;-2.62;82.88;99943.09;129950;1093;23424;-58
2020/12/11 08:39:19;;;;;;;26.17;13.20;;;;;;;-2.61;82.92;99939.42;129773;1093;23316;-58
2020/12/11 08:41:59;;;;;;;27.60;13.32;;;;;;;-2.59;82.85;99947.23;129987;1101;23765;-59
2020/12/11 08:49:47;;;;;;;19.60;11.07;;;;;;;-2.57;82.57;99942.58;129870;1093;23160;-59
2020/12/11 08:52:14;;;;;;;20.00;11.63;;;;;;;-2.59;82.75;99933.89;129969;1093;26290;-59
2020/12/11 08:54:41;;;;;;;24.27;11.73;;;;;;;-2.59;82.54;99940.06;129816;1093;23231;-59
2020/12/11 08:57:15;;;;;;;29.37;13.33;;;;;;;-2.56;82.75;99941.58;129998;1101;23232;-59
2020/12/11 08:59:43;;;;;;;30.77;14.03;;;;;;;-2.55;82.75;99929.91;129806;1093;24151;-59
2020/12/11 09:02:10;;;;;;;23.23;11.63;;;;;;;-2.51;82.88;99934.77;129969;1095;23245;-59
2020/12/11 09:04:38;;;;;;;29.27;11.70;;;;;;;-2.45;83.19;99943.13;129826;1093;23163;-59
2020/12/11 09:07:07;;;;;;;23.37;12.40;;;;;;;-2.42;83.00;99942.77;129980;1093;23162;-59
2020/12/11 09:09:35;;;;;;;24.50;12.37;;;;;;;-2.45;82.65;99916.45;129850;1093;23133;-59
2020/12/11 09:12:09;;;;;;;20.87;10.73;;;;;;;-2.48;82.50;99924.77;129937;1093;23883;-59
2020/12/11 09:14:36;;;;;;;28.77;13.60;;;;;;;-2.53;82.30;99920.75;129824;1091;23840;-59
2020/12/11 09:17:03;;;;;;;26.97;12.53;;;;;;;-2.56;82.22;99909.56;130010;1101;23209;-59
2020/12/11 09:19:36;;;;;;;23.57;13.10;;;;;;;-2.59;82.27;99905.39;129913;1093;23210;-59
2020/12/11 09:22:03;;;;;;;25.80;13.07;;;;;;;-2.61;82.21;99910.08;129993;1100;23146;-59
2020/12/11 09:24:31;;;;;;;23.30;12.33;;;;;;;-2.63;82.15;99920.08;129934;1093;24318;-59
2020/12/11 09:27:01;;;;;;;27.87;12.57;;;;;;;-2.64;82.26;99913.07;129797;1093;23998;-59
2020/12/11 09:29:38;;;;;;;38.23;12.63;;;;;;;-2.67;82.38;99916.06;129984;1100;24212;-59
2020/12/11 09:32:08;;;;;;;26.30;13.27;;;;;;;-2.66;82.35;99925.73;129828;1092;23217;-59
2020/12/11 09:34:36;;;;;;;33.60;14.30;;;;;;;-2.64;82.64;99920.23;129929;1100;23165;-59
2020/12/11 09:37:04;;;;;;;26.47;13.83;;;;;;;-2.61;82.74;99927.92;129810;1093;23287;-59
2020/12/11 09:39:34;;;;;;;26.93;13.43;;;;;;;-2.61;82.40;99911.91;129944;1093;23227;-59
2020/12/11 09:42:39;;;;;;;24.70;13.97;;;;;;;-2.64;82.84;99902.41;129892;1093;24209;-59
2020/12/11 09:45:06;;;;;;;27.17;13.00;;;;;;;-2.63;82.15;99900.58;129864;1093;23166;-59
2020/12/11 09:53:02;;;;;;;32.77;14.77;;;;;;;-2.58;83.17;99899.06;129835;1093;23167;-59
2020/12/11 09:55:43;;;;;;;32.63;13.57;;;;;;;-2.54;83.08;99897.74;129988;1092;23192;-58
2020/12/11 09:58:11;;;;;;;24.97;13.27;;;;;;;-2.53;82.55;99886.08;129806;1100;23231;-59
2020/12/11 10:00:41;;;;;;;27.40;13.20;;;;;;;-2.52;82.81;99890.41;129902;1093;24234;-59
2020/12/11 10:03:13;;;;;;;33.00;15.00;;;;;;;-2.50;82.87;99899.09;129836;1093;24341;-59
2020/12/11 10:05:42;;;;;;;31.57;15.00;;;;;;;-2.51;82.73;99886.75;128995;1101;23389;-59
2020/12/11 10:08:16;;;;;;;39.30;18.90;;;;;;;-2.50;82.68;99877.75;125286;1093;24438;-59
2020/12/11 10:10:43;;;;;;;38.23;20.00;;;;;;;-2.53;82.35;99878.08;125499;1093;23414;-58
2020/12/11 10:13:11;;;;;;;30.67;16.33;;;;;;;-2.57;82.28;99876.73;129782;1093;23280;-59
2020/12/11 10:15:39;;;;;;;34.87;16.60;;;;;;;-2.60;81.91;99869.08;129947;1093;23185;-60
2020/12/11 10:18:06;;;;;;;23.70;12.60;;;;;;;-2.62;82.20;99857.73;129836;1100;23169;-59
2020/12/11 10:20:35;;;;;;;25.77;13.63;;;;;;;-2.64;82.03;99867.73;129967;1093;23139;-59
2020/12/11 10:23:02;;;;;;;24.37;13.97;;;;;;;-2.67;82.33;99872.55;129804;1093;23317;-58
2020/12/11 10:25:35;;;;;;;26.57;13.37;;;;;;;-2.69;82.10;99867.38;129956;1093;23258;-60
2020/12/11 10:28:03;;;;;;;26.73;13.80;;;;;;;-2.69;82.34;99877.22;129803;1093;23163;-59
2020/12/11 10:30:33;;;;;;;25.17;12.23;;;;;;;-2.69;82.41;99874.55;129925;1093;23207;-59
2020/12/11 10:33:00;;;;;;;24.67;13.83;;;;;;;-2.68;82.76;99871.72;129829;1093;23159;-58
2020/12/11 10:35:28;;;;;;;21.77;12.67;;;;;;;-2.67;82.52;99872.55;129926;1093;24378;-59
2020/12/11 10:37:55;;;;;;;26.55;13.55;;;;;;;-2.67;82.41;99878.72;129819;1093;23243;-58
2020/12/11 10:40:23;;;;;;;24.70;12.90;;;;;;;-2.70;82.19;99868.38;130000;1100;23911;-58
2020/12/11 10:42:50;;;;;;;28.43;14.17;;;;;;;-2.75;81.91;99864.55;129860;1093;23220;-59
2020/12/11 10:45:20;;;;;;;28.73;14.20;;;;;;;-2.80;81.81;99861.53;130000;1101;23204;-60
2020/12/11 10:48:06;;;;;;;23.90;12.53;;;;;;;-2.83;81.92;99851.19;129864;1093;23261;-58
2020/12/11 10:50:34;;;;;;;20.27;12.73;;;;;;;-2.85;81.94;99854.02;129977;1093;24457;-59
2020/12/11 10:53:01;;;;;;;26.80;13.60;;;;;;;-2.86;81.80;99842.52;130004;1100;23213;-59
2020/12/11 10:55:30;;;;;;;24.87;12.50;;;;;;;-2.85;82.44;99859.35;129805;1093;23256;-59
2020/12/11 10:57:59;;;;;;;28.23;12.93;;;;;;;-2.83;82.37;99857.36;129990;1093;24141;-59
2020/12/11 11:00:26;;;;;;;32.07;14.33;;;;;;;-2.80;82.44;99865.03;129867;1093;23320;-59
2020/12/11 11:02:54;;;;;;;29.90;14.87;;;;;;;-2.77;82.69;99863.88;129956;1093;24113;-60
2020/12/11 11:05:21;;;;;;;25.77;12.83;;;;;;;-2.74;83.27;99867.03;129887;1100;23147;-60
2020/12/11 11:07:53;;;;;;;26.20;12.67;;;;;;;-2.69;83.30;99846.05;129992;1093;23173;-58
2020/12/11 11:10:39;;;;;;;30.70;13.97;;;;;;;-2.67;82.62;99857.39;129827;1093;23169;-59
2020/12/11 11:15:45;;;;;;;25.10;12.27;;;;;;;-2.64;82.79;99857.06;129798;1093;23319;-60
2020/12/11 11:28:32;;;;;;;23.40;13.00;;;;;;;-2.72;82.56;99841.03;129960;1096;24460;-59
2020/12/11 11:31:00;;;;;;;23.33;12.67;;;;;;;-2.75;82.39;99844.06;129758;1093;23883;-59
2020/12/11 11:33:30;;;;;;;26.23;11.67;;;;;;;-2.77;82.40;99846.05;129962;1093;23187;-60
2020/12/11 11:35:58;;;;;;;25.50;13.47;;;;;;;-2.77;82.75;99839.88;129801;1093;23178;-60
2020/12/11 11:38:28;;;;;;;23.93;12.60;;;;;;;-2.78;82.54;99835.55;129944;1093;23362;-59
2020/12/11 11:40:55;;;;;;;24.75;11.90;;;;;;;-2.80;82.46;99843.70;129839;1100;23230;-59
2020/12/11 11:46:23;;;;;;;20.87;11.10;;;;;;;-2.80;82.75;99842.88;129563;1093;23264;-60
2020/12/11 11:48:50;;;;;;;34.23;13.57;;;;;;;-2.80;82.68;99845.54;129949;1100;23895;-59
2020/12/11 11:51:26;;;;;;;27.63;14.60;;;;;;;-2.85;82.32;99832.69;129833;1093;23242;-59
2020/12/11 11:53:54;;;;;;;26.13;14.03;;;;;;;-2.89;81.90;99834.04;129935;1093;23193;-59
2020/12/11 11:56:21;;;;;;;24.73;13.83;;;;;;;-2.91;82.17;99836.03;129788;1093;24262;-59